createdAt,value
2018-05-04T00:01:05.459Z,102076.16
2018-05-04T00:03:34.544Z,102077.87
2018-05-04T00:06:02.901Z,102081.92
2018-05-04T00:08:31.248Z,102082.30
2018-05-04T00:10:59.583Z,102084.24
2018-05-04T00:13:27.965Z,102081.69
2018-05-04T00:15:57.057Z,102083.70
2018-05-04T00:18:26.155Z,102083.08
2018-05-04T00:20:55.968Z,102081.02
2018-05-04T00:23:24.307Z,102087.92
2018-05-04T00:25:53.414Z,102091.27
2018-05-04T00:28:21.776Z,102089.28
2018-05-04T00:30:50.096Z,102088.09
2018-05-04T00:33:18.445Z,102094.67
2018-05-04T00:35:46.806Z,102090.97
2018-05-04T00:38:15.151Z,102093.58
2018-05-04T00:40:44.270Z,102090.38
2018-05-04T00:43:12.885Z,102088.72
2018-05-04T00:45:41.604Z,102088.13
2018-05-04T00:48:10.689Z,102092.70
2018-05-04T00:50:39.027Z,102099.00
2018-05-04T00:53:07.391Z,102101.05
2018-05-04T00:55:35.705Z,102105.35
2018-05-04T00:58:04.043Z,102110.15
2018-05-04T01:00:32.355Z,102118.88
2018-05-04T01:03:00.656Z,102124.68
2018-05-04T01:05:29.364Z,102135.06
2018-05-04T01:07:57.727Z,102139.34
2018-05-04T01:10:26.031Z,102137.07
2018-05-04T01:12:55.169Z,102134.18
2018-05-04T01:15:23.532Z,102139.19
2018-05-04T01:17:51.838Z,102134.73
2018-05-04T01:20:20.296Z,102132.52
2018-05-04T01:22:48.555Z,102143.47
2018-05-04T01:25:16.881Z,102137.31
2018-05-04T01:27:45.739Z,102140.78
2018-05-04T01:30:14.055Z,102141.88
2018-05-04T01:32:42.372Z,102147.48
2018-05-04T01:35:11.528Z,102147.00
2018-05-04T01:37:39.862Z,102143.59
2018-05-04T01:40:08.164Z,102146.73
2018-05-04T01:42:36.559Z,102142.92
2018-05-04T01:45:04.913Z,102143.49
2018-05-04T01:47:33.224Z,102149.24
2018-05-04T01:50:02.035Z,102157.62
2018-05-04T01:52:30.357Z,102157.44
2018-05-04T01:54:58.643Z,102162.86
2018-05-04T01:57:26.990Z,102162.61
2018-05-04T01:59:55.320Z,102163.41
2018-05-04T02:02:23.637Z,102169.56
2018-05-04T02:04:52.761Z,102176.39
2018-05-04T02:07:21.072Z,102176.45
2018-05-04T02:09:49.395Z,102174.76
2018-05-04T02:12:18.692Z,102174.88
2018-05-04T02:14:47.782Z,102181.39
2018-05-04T02:17:16.846Z,102185.02
2018-05-04T02:19:45.197Z,102189.58
2018-05-04T02:22:13.535Z,102188.34
2018-05-04T02:24:41.849Z,102189.58
2018-05-04T02:27:10.195Z,102190.59
2018-05-04T02:29:39.285Z,102191.53
2018-05-04T02:32:08.399Z,102191.89
2018-05-04T02:34:37.958Z,102194.79
2018-05-04T02:37:06.296Z,102195.30
2018-05-04T02:39:34.607Z,102192.39
2018-05-04T02:42:02.952Z,102196.37
2018-05-04T02:44:31.267Z,102193.91
2018-05-04T02:46:59.620Z,102195.16
2018-05-04T02:49:28.002Z,102195.94
2018-05-04T02:51:56.319Z,102204.31
2018-05-04T02:54:24.620Z,102205.44
2018-05-04T02:56:53.953Z,102196.37
2018-05-04T02:59:22.314Z,102194.12
2018-05-04T03:01:50.644Z,102197.44
2018-05-04T03:04:19.005Z,102197.01
2018-05-04T03:06:47.315Z,102192.92
2018-05-04T03:09:15.631Z,102198.38
2018-05-04T03:11:44.010Z,102183.51
2018-05-04T03:14:12.313Z,102186.13
2018-05-04T03:16:40.620Z,102184.88
2018-05-04T03:19:09.423Z,102191.05
2018-05-04T03:21:37.719Z,102185.66
2018-05-04T03:24:06.806Z,102190.58
2018-05-04T03:26:35.923Z,102190.65
2018-05-04T03:29:04.257Z,102192.69
2018-05-04T03:31:34.069Z,102190.84
2018-05-04T03:34:02.414Z,102190.50
2018-05-04T03:36:30.724Z,102191.42
2018-05-04T03:38:59.077Z,102193.70
2018-05-04T03:41:27.491Z,102192.39
2018-05-04T03:43:55.855Z,102194.69
2018-05-04T03:46:24.175Z,102196.17
2018-05-04T03:48:52.542Z,102196.63
2018-05-04T03:51:20.881Z,102201.11
2018-05-04T03:53:49.235Z,102203.48
2018-05-04T03:56:17.582Z,102197.11
2018-05-04T04:02:32.234Z,102201.06
2018-05-04T04:05:00.584Z,102201.20
2018-05-04T04:07:28.899Z,102204.80
2018-05-04T04:09:57.220Z,102206.63
2018-05-04T04:12:26.318Z,102204.24
2018-05-04T04:14:55.434Z,102205.88
2018-05-04T04:17:23.822Z,102203.36
2018-05-04T04:19:52.166Z,102200.89
2018-05-04T04:22:21.246Z,102202.98
2018-05-04T04:24:49.915Z,102210.09
2018-05-04T04:27:18.231Z,102209.48
2018-05-04T04:29:47.319Z,102215.52
2018-05-04T04:32:16.428Z,102213.86
2018-05-04T04:34:45.498Z,102217.27
2018-05-04T04:39:49.053Z,102227.81
2018-05-04T04:42:17.377Z,102224.91
2018-05-04T04:44:45.709Z,102225.20
2018-05-04T04:47:14.374Z,102227.59
2018-05-04T04:49:42.702Z,102236.03
2018-05-04T04:52:11.009Z,102235.39
2018-05-04T04:54:39.355Z,102233.37
2018-05-04T04:57:07.673Z,102234.72
2018-05-04T04:59:36.008Z,102240.36
2018-05-04T05:02:04.486Z,102243.21
2018-05-04T05:04:32.843Z,102244.60
2018-05-04T05:07:01.179Z,102243.01
2018-05-04T05:09:29.905Z,102245.66
2018-05-04T05:11:58.996Z,102245.83
2018-05-04T05:14:27.345Z,102252.48
2018-05-04T05:16:55.689Z,102248.72
2018-05-04T05:19:24.122Z,102263.95
2018-05-04T05:21:53.253Z,102262.09
2018-05-04T05:24:22.345Z,102258.10
2018-05-04T05:26:50.671Z,102260.14
2018-05-04T05:29:18.980Z,102262.23
2018-05-04T05:31:47.654Z,102254.14
2018-05-04T05:34:16.008Z,102258.05
2018-05-04T05:36:44.339Z,102262.94
2018-05-04T05:39:13.451Z,102261.84
2018-05-04T05:41:41.781Z,102258.24
2018-05-04T05:44:10.106Z,102263.77
2018-05-04T05:46:38.911Z,102272.48
2018-05-04T05:49:07.283Z,102271.81
2018-05-04T05:51:35.588Z,102268.80
2018-05-04T05:54:04.067Z,102265.98
2018-05-04T05:56:32.425Z,102270.78
2018-05-04T05:59:00.861Z,102269.69
2018-05-04T06:01:29.258Z,102278.55
2018-05-04T06:03:57.590Z,102276.81
2018-05-04T06:06:26.098Z,102271.89
2018-05-04T06:08:54.463Z,102270.61
2018-05-04T06:11:22.778Z,102264.67
2018-05-04T06:13:51.180Z,102265.74
2018-05-04T06:16:20.187Z,102268.66
2018-05-04T06:18:48.507Z,102271.78
2018-05-04T06:21:16.867Z,102265.34
2018-05-04T06:23:45.200Z,102273.27
2018-05-04T06:26:13.517Z,102264.48
2018-05-04T06:28:41.870Z,102267.20
2018-05-04T06:31:10.232Z,102264.01
2018-05-04T06:33:38.563Z,102266.61
2018-05-04T06:36:06.937Z,102266.05
2018-05-04T06:38:35.470Z,102261.78
2018-05-04T06:41:03.823Z,102263.55
2018-05-04T06:43:32.174Z,102271.67
2018-05-04T06:46:00.529Z,102266.43
2018-05-04T06:48:29.034Z,102268.81
2018-05-04T06:50:57.397Z,102273.97
2018-05-04T06:53:25.779Z,102266.39
2018-05-04T06:55:54.115Z,102270.23
2018-05-04T06:58:23.194Z,102274.70
2018-05-04T07:00:51.982Z,102273.05
2018-05-04T07:03:20.283Z,102267.72
2018-05-04T07:05:48.669Z,102270.34
2018-05-04T07:08:17.862Z,102267.30
2018-05-04T07:10:46.198Z,102263.06
2018-05-04T07:13:14.567Z,102268.33
2018-05-04T07:15:42.914Z,102266.52
2018-05-04T07:18:11.234Z,102273.30
2018-05-04T07:20:39.582Z,102275.52
2018-05-04T07:23:08.519Z,102274.93
2018-05-04T07:25:36.862Z,102264.80
2018-05-04T07:28:05.199Z,102269.77
2018-05-04T07:30:34.316Z,102270.99
2018-05-04T07:33:02.789Z,102261.36
2018-05-04T07:35:31.119Z,102266.63
2018-05-04T07:37:59.478Z,102266.58
2018-05-04T07:40:27.817Z,102267.03
2018-05-04T07:42:56.913Z,102274.02
2018-05-04T07:45:26.325Z,102270.63
2018-05-04T07:47:54.662Z,102269.87
2018-05-04T07:50:23.350Z,102269.08
2018-05-04T07:52:51.690Z,102262.89
2018-05-04T07:55:20.019Z,102271.09
2018-05-04T07:57:48.327Z,102267.11
2018-05-04T08:00:16.734Z,102273.70
2018-05-04T08:02:45.055Z,102270.31
2018-05-04T08:05:13.380Z,102268.62
2018-05-04T08:07:42.243Z,102269.36
2018-05-04T08:10:11.308Z,102276.37
2018-05-04T08:12:40.411Z,102263.36
2018-05-04T08:15:08.862Z,102270.62
2018-05-04T08:17:37.217Z,102277.66
2018-05-04T08:20:05.653Z,102285.65
2018-05-04T08:22:34.691Z,102271.36
2018-05-04T08:25:03.074Z,102278.20
2018-05-04T08:27:31.408Z,102276.67
2018-05-04T08:30:00.455Z,102275.48
2018-05-04T08:32:28.854Z,102273.03
2018-05-04T08:34:57.191Z,102274.52
2018-05-04T08:37:25.567Z,102277.55
2018-05-04T08:39:54.666Z,102276.00
2018-05-04T08:42:23.759Z,102282.91
2018-05-04T08:44:52.154Z,102273.41
2018-05-04T08:47:20.474Z,102270.87
2018-05-04T08:49:48.776Z,102274.99
2018-05-04T08:52:17.384Z,102276.21
2018-05-04T08:54:45.691Z,102274.45
2018-05-04T08:57:14.835Z,102279.33
2018-05-04T08:59:43.172Z,102274.52
2018-05-04T09:02:11.531Z,102278.50
2018-05-04T09:04:39.848Z,102272.11
2018-05-04T09:07:08.271Z,102266.91
2018-05-04T09:09:36.637Z,102266.88
2018-05-04T09:12:04.908Z,102271.36
2018-05-04T09:14:33.314Z,102266.09
2018-05-04T09:17:02.385Z,102260.21
2018-05-04T09:19:30.731Z,102260.14
2018-05-04T09:21:59.067Z,102259.41
2018-05-04T09:24:28.148Z,102263.02
2018-05-04T09:26:57.234Z,102271.19
2018-05-04T09:29:25.608Z,102268.00
2018-05-04T09:31:53.956Z,102274.65
2018-05-04T09:34:22.299Z,102276.30
2018-05-04T09:36:51.445Z,102267.69
2018-05-04T09:39:19.739Z,102277.86
2018-05-04T09:41:48.091Z,102279.25
2018-05-04T09:44:16.462Z,102272.48
2018-05-04T09:46:44.889Z,102277.77
2018-05-04T09:49:13.234Z,102272.58
2018-05-04T09:51:41.559Z,102277.08
2018-05-04T09:54:09.864Z,102276.76
2018-05-04T09:56:38.206Z,102283.03
2018-05-04T09:59:07.678Z,102280.47
2018-05-04T10:01:35.980Z,102279.73
2018-05-04T10:04:04.302Z,102281.31
2018-05-04T10:06:32.650Z,102278.16
2018-05-04T10:09:01.779Z,102276.05
2018-05-04T10:11:30.125Z,102279.78
2018-05-04T10:13:59.220Z,102276.95
2018-05-04T10:16:28.294Z,102281.96
2018-05-04T10:18:56.633Z,102275.70
2018-05-04T10:21:25.156Z,102275.59
2018-05-04T10:23:53.504Z,102269.73
2018-05-04T10:26:21.828Z,102277.20
2018-05-04T10:28:50.196Z,102277.39
2018-05-04T10:31:18.642Z,102279.73
2018-05-04T10:33:47.684Z,102279.09
2018-05-04T10:36:16.075Z,102277.92
2018-05-04T10:38:44.396Z,102277.39
2018-05-04T10:41:12.760Z,102280.58
2018-05-04T10:43:41.508Z,102282.60
2018-05-04T10:46:10.185Z,102286.64
2018-05-04T10:48:38.499Z,102288.36
2018-05-04T10:51:06.863Z,102277.03
2018-05-04T10:53:35.963Z,102285.38
2018-05-04T10:56:05.049Z,102284.08
2018-05-04T10:58:34.166Z,102279.02
2018-05-04T11:01:02.487Z,102275.78
2018-05-04T11:03:30.811Z,102278.44
2018-05-04T11:05:59.448Z,102281.11
2018-05-04T11:08:27.771Z,102278.34
2018-05-04T11:10:56.091Z,102277.30
2018-05-04T11:13:24.434Z,102276.72
2018-05-04T11:15:53.546Z,102271.41
2018-05-04T11:18:21.899Z,102269.71
2018-05-04T11:20:50.268Z,102267.70
2018-05-04T11:23:18.582Z,102275.83
2018-05-04T11:25:46.926Z,102265.20
2018-05-04T11:28:15.641Z,102273.02
2018-05-04T11:30:44.712Z,102267.59
2018-05-04T11:33:13.003Z,102267.47
2018-05-04T11:35:42.115Z,102264.94
2018-05-04T11:38:10.440Z,102264.09
2018-05-04T11:40:38.776Z,102266.53
2018-05-04T11:43:07.155Z,102268.10
2018-05-04T11:45:35.498Z,102268.95
2018-05-04T11:48:03.872Z,102271.31
2018-05-04T11:50:32.474Z,102267.56
2018-05-04T11:53:00.946Z,102265.19
2018-05-04T11:55:29.270Z,102262.50
2018-05-04T11:57:57.660Z,102265.69
2018-05-04T12:00:25.991Z,102259.83
2018-05-04T12:02:55.089Z,102258.92
2018-05-04T12:05:24.211Z,102266.08
2018-05-04T12:07:52.535Z,102265.42
2018-05-04T12:10:20.831Z,102263.78
2018-05-04T12:12:50.168Z,102260.97
2018-05-04T12:15:18.467Z,102267.27
2018-05-04T12:17:46.798Z,102269.30
2018-05-04T12:20:15.958Z,102260.37
2018-05-04T12:22:44.296Z,102263.14
2018-05-04T12:25:12.608Z,102260.70
2018-05-04T12:27:40.989Z,102260.27
2018-05-04T12:30:09.357Z,102262.23
2018-05-04T12:32:37.683Z,102262.95
2018-05-04T12:35:07.335Z,102256.59
2018-05-04T12:37:35.653Z,102258.77
2018-05-04T12:40:03.969Z,102260.56
2018-05-04T12:42:33.073Z,102258.00
2018-05-04T12:45:01.507Z,102266.37
2018-05-04T12:47:29.820Z,102255.25
2018-05-04T12:49:58.937Z,102260.42
2018-05-04T12:52:27.289Z,102256.80
2018-05-04T12:54:55.859Z,102254.00
2018-05-04T12:57:24.495Z,102249.41
2018-05-04T12:59:52.822Z,102248.96
2018-05-04T13:02:21.136Z,102244.31
2018-05-04T13:04:49.518Z,102245.25
2018-05-04T13:07:17.855Z,102246.43
2018-05-04T13:09:46.153Z,102241.25
2018-05-04T13:12:15.270Z,102249.03
2018-05-04T13:14:43.619Z,102248.81
2018-05-04T13:17:11.948Z,102244.07
2018-05-04T13:19:40.775Z,102243.55
2018-05-04T13:22:09.134Z,102243.33
2018-05-04T13:24:37.458Z,102243.37
2018-05-04T13:27:06.571Z,102244.09
2018-05-04T13:29:34.909Z,102240.48
2018-05-04T13:32:03.206Z,102237.59
2018-05-04T13:34:31.542Z,102232.96
2018-05-04T13:36:59.886Z,102231.37
2018-05-04T13:39:28.223Z,102241.02
2018-05-04T13:41:56.685Z,102234.97
2018-05-04T13:44:25.034Z,102229.36
2018-05-04T13:46:53.328Z,102226.06
2018-05-04T13:49:21.693Z,102231.37
2018-05-04T13:51:50.032Z,102224.29
2018-05-04T13:54:19.221Z,102231.13
2018-05-04T13:56:47.529Z,102242.40
2018-05-04T13:59:15.874Z,102227.18
2018-05-04T14:01:44.224Z,102229.71
2018-05-04T14:04:12.716Z,102232.81
2018-05-04T14:06:41.035Z,102224.31
2018-05-04T14:09:10.156Z,102233.45
2018-05-04T14:11:38.518Z,102233.02
2018-05-04T14:14:06.836Z,102233.03
2018-05-04T14:16:35.186Z,102233.87
2018-05-04T14:19:03.539Z,102231.41
2018-05-04T14:21:31.863Z,102224.92
2018-05-04T14:24:00.193Z,102229.95
2018-05-04T14:26:28.824Z,102234.41
2018-05-04T14:28:57.135Z,102228.34
2018-05-04T14:31:25.451Z,102223.20
2018-05-04T14:33:54.700Z,102228.11
2018-05-04T14:36:23.010Z,102228.23
2018-05-04T14:38:51.357Z,102227.49
2018-05-04T14:41:19.760Z,102227.08
2018-05-04T14:43:48.104Z,102232.94
2018-05-04T14:46:16.682Z,102227.38
2018-05-04T14:48:45.515Z,102225.20
2018-05-04T14:51:13.827Z,102224.72
2018-05-04T14:53:42.134Z,102232.51
2018-05-04T14:56:10.498Z,102220.83
2018-05-04T14:58:38.921Z,102232.59
2018-05-04T15:01:07.244Z,102224.41
2018-05-04T15:03:35.567Z,102227.48
2018-05-04T15:06:03.895Z,102227.76
2018-05-04T15:08:33.003Z,102229.98
2018-05-04T15:11:01.876Z,102232.23
2018-05-04T15:13:30.202Z,102226.85
2018-05-04T15:15:58.578Z,102229.46
2018-05-04T15:18:26.947Z,102223.03
2018-05-04T15:20:55.297Z,102224.09
2018-05-04T15:23:24.400Z,102221.27
2018-05-04T15:25:53.526Z,102217.08
2018-05-04T15:28:21.867Z,102221.52
2018-05-04T15:30:50.249Z,102218.33
2018-05-04T15:33:19.602Z,102210.77
2018-05-04T15:35:47.988Z,102208.70
2018-05-04T15:38:16.342Z,102215.70
2018-05-04T15:40:44.722Z,102218.14
2018-05-04T15:43:13.031Z,102217.27
2018-05-04T15:45:41.468Z,102220.30
2018-05-04T15:48:15.299Z,102222.05
2018-05-04T15:50:49.167Z,102214.19
2018-05-04T15:53:17.732Z,102217.44
2018-05-04T15:55:46.854Z,102218.70
2018-05-04T15:58:15.395Z,102218.89
2018-05-04T16:00:43.720Z,102219.75
2018-05-04T16:03:12.019Z,102220.58
2018-05-04T16:05:40.357Z,102222.55
2018-05-04T16:08:08.739Z,102223.98
2018-05-04T16:10:37.837Z,102221.47
2018-05-04T16:13:06.936Z,102225.47
2018-05-04T16:15:36.533Z,102222.52
2018-05-04T16:18:04.876Z,102218.99
2018-05-04T16:20:33.259Z,102226.95
2018-05-04T16:23:01.616Z,102225.50
2018-05-04T16:25:29.971Z,102218.56
2018-05-04T16:27:58.314Z,102226.28
2018-05-04T16:30:26.667Z,102223.66
2018-05-04T16:32:55.025Z,102218.00
2018-05-04T16:35:23.353Z,102220.64
2018-05-04T16:37:51.843Z,102220.20
2018-05-04T16:40:20.174Z,102219.16
2018-05-04T16:42:48.520Z,102218.12
2018-05-04T16:45:16.894Z,102223.35
2018-05-04T16:47:50.600Z,102220.95
2018-05-04T16:50:19.717Z,102223.25
2018-05-04T16:52:48.056Z,102220.88
2018-05-04T16:55:16.383Z,102224.91
2018-05-04T16:57:45.070Z,102228.16
2018-05-04T17:00:13.416Z,102230.31
2018-05-04T17:02:41.758Z,102232.80
2018-05-04T17:05:10.248Z,102233.52
2018-05-04T17:07:38.561Z,102232.74
2018-05-04T17:10:06.904Z,102226.95
2018-05-04T17:12:35.286Z,102237.14
2018-05-04T17:15:03.622Z,102241.02
2018-05-04T17:17:31.926Z,102246.87
2018-05-04T17:20:00.773Z,102255.45
2018-05-04T17:22:29.101Z,102255.94
2018-05-04T17:24:57.417Z,102259.77
2018-05-04T17:27:26.535Z,102269.22
2018-05-04T17:29:54.888Z,102268.53
2018-05-04T17:32:23.236Z,102267.48
2018-05-04T17:34:51.602Z,102263.31
2018-05-04T17:37:19.954Z,102272.63
2018-05-04T17:39:48.268Z,102266.83
2018-05-04T17:42:16.752Z,102272.55
2018-05-04T17:44:45.104Z,102271.05
2018-05-04T17:47:13.425Z,102272.49
2018-05-04T17:49:41.804Z,102272.15
2018-05-04T17:52:10.143Z,102276.80
2018-05-04T17:54:38.465Z,102275.64
2018-05-04T17:57:06.804Z,102287.98
2018-05-04T17:59:35.134Z,102286.98
2018-05-04T18:02:04.228Z,102288.13
2018-05-04T18:04:33.735Z,102291.10
2018-05-04T18:07:02.816Z,102286.07
2018-05-04T18:09:31.159Z,102292.62
2018-05-04T18:11:59.640Z,102296.41
2018-05-04T18:14:27.977Z,102292.71
2018-05-04T18:16:56.306Z,102297.78
2018-05-04T18:19:24.645Z,102307.17
2018-05-04T18:21:53.743Z,102305.58
2018-05-04T18:24:22.819Z,102314.98
2018-05-04T18:26:52.266Z,102320.16
2018-05-04T18:29:20.638Z,102322.48
2018-05-04T18:31:48.963Z,102327.11
2018-05-04T18:34:17.338Z,102320.68
2018-05-04T18:36:45.684Z,102329.96
2018-05-04T18:39:13.982Z,102333.47
2018-05-04T18:41:42.401Z,102335.34
2018-05-04T18:44:11.498Z,102340.05
2018-05-04T18:46:40.625Z,102336.14
2018-05-04T18:49:09.252Z,102344.26
2018-05-04T18:51:37.608Z,102341.37
2018-05-04T18:54:05.974Z,102346.34
2018-05-04T18:56:34.317Z,102350.77
2018-05-04T18:59:03.424Z,102353.09
2018-05-04T19:01:32.512Z,102357.64
2018-05-04T19:04:02.027Z,102361.57
2018-05-04T19:06:31.142Z,102363.10
2018-05-04T19:08:59.484Z,102362.44
2018-05-04T19:11:28.379Z,102362.40
2018-05-04T19:13:56.708Z,102360.64
2018-05-04T19:16:25.070Z,102364.55
2018-05-04T19:18:53.414Z,102370.91
2018-05-04T19:21:21.756Z,102379.40
2018-05-04T19:23:50.081Z,102379.22
2018-05-04T19:26:19.211Z,102379.58
2018-05-04T19:28:47.629Z,102380.59
2018-05-04T19:31:15.935Z,102386.88
2018-05-04T19:33:45.452Z,102382.52
2018-05-04T19:36:14.565Z,102379.17
2018-05-04T19:38:42.920Z,102379.43
2018-05-04T19:41:11.271Z,102382.13
2018-05-04T19:43:39.571Z,102387.30
2018-05-04T19:46:08.703Z,102387.41
2018-05-04T19:48:37.032Z,102387.66
2018-05-04T19:51:05.344Z,102392.00
2018-05-04T19:53:33.668Z,102397.67
2018-05-04T19:56:02.125Z,102397.41
2018-05-04T19:58:30.457Z,102400.50
2018-05-04T20:00:58.847Z,102404.58
2018-05-04T20:03:27.211Z,102412.70
2018-05-04T20:05:55.744Z,102418.80
2018-05-04T20:08:24.078Z,102417.66
2018-05-04T20:10:53.392Z,102427.95
2018-05-04T20:13:21.723Z,102432.02
2018-05-04T20:15:50.076Z,102434.94
2018-05-04T20:18:18.540Z,102435.91
2018-05-04T20:20:47.665Z,102443.18
2018-05-04T20:23:15.984Z,102446.85
2018-05-04T20:25:44.318Z,102455.20
2018-05-04T20:28:12.644Z,102447.69
2018-05-04T20:30:40.977Z,102455.57
2018-05-04T20:33:09.321Z,102461.58
2018-05-04T20:35:37.657Z,102457.82
2018-05-04T20:38:05.995Z,102458.81
2018-05-04T20:40:34.739Z,102460.14
2018-05-04T20:43:03.052Z,102465.37
2018-05-04T20:45:32.116Z,102468.53
2018-05-04T20:48:00.529Z,102473.52
2018-05-04T20:50:29.623Z,102476.98
2018-05-04T20:52:58.710Z,102480.93
2018-05-04T20:55:27.847Z,102483.86
2018-05-04T20:57:56.196Z,102485.73
2018-05-04T21:00:24.503Z,102483.87
2018-05-04T21:02:53.337Z,102485.59
2018-05-04T21:05:21.671Z,102488.27
2018-05-04T21:07:50.015Z,102487.80
2018-05-04T21:10:19.139Z,102490.92
2018-05-04T21:12:47.476Z,102488.67
2018-05-04T21:15:15.813Z,102483.92
2018-05-04T21:17:44.175Z,102481.30
2018-05-04T21:20:12.487Z,102484.22
2018-05-04T21:22:40.837Z,102491.39
2018-05-04T21:25:09.322Z,102487.37
2018-05-04T21:27:37.649Z,102488.41
2018-05-04T21:30:06.751Z,102489.20
2018-05-04T21:32:35.880Z,102490.89
2018-05-04T21:35:04.223Z,102492.09
2018-05-04T21:37:33.344Z,102493.91
2018-05-04T21:40:01.757Z,102493.84
2018-05-04T21:42:30.070Z,102490.56
2018-05-04T21:44:58.387Z,102495.18
2018-05-04T21:47:27.033Z,102496.33
2018-05-04T21:49:55.375Z,102500.98
2018-05-04T21:52:23.673Z,102505.64
2018-05-04T21:54:52.035Z,102501.11
2018-05-04T21:57:20.365Z,102508.06
2018-05-04T21:59:49.439Z,102512.66
2018-05-04T22:02:18.147Z,102511.81
2018-05-04T22:04:47.277Z,102508.30
2018-05-04T22:07:16.022Z,102512.05
2018-05-04T22:09:44.988Z,102511.98
2018-05-04T22:12:13.307Z,102517.36
2018-05-04T22:14:41.627Z,102507.16
2018-05-04T22:17:09.989Z,102511.84
2018-05-04T22:19:38.313Z,102513.70
2018-05-04T22:22:06.650Z,102516.80
2018-05-04T22:24:34.995Z,102512.36
2018-05-04T22:27:04.084Z,102518.59
2018-05-04T22:29:32.405Z,102519.46
2018-05-04T22:32:00.841Z,102517.45
2018-05-04T22:34:29.182Z,102519.97
2018-05-04T22:36:57.514Z,102528.95
2018-05-04T22:39:25.878Z,102524.98
2018-05-04T22:41:54.951Z,102527.02
2018-05-04T22:44:23.261Z,102528.55
2018-05-04T22:46:51.634Z,102532.38
2018-05-04T22:49:19.929Z,102539.61
2018-05-04T22:51:49.050Z,102537.96
2018-05-04T22:54:17.881Z,102537.89
2018-05-04T22:56:46.183Z,102537.89
2018-05-04T22:59:15.275Z,102536.89
2018-05-04T23:01:43.618Z,102535.03
2018-05-04T23:04:11.915Z,102537.02
2018-05-04T23:06:40.257Z,102531.17
2018-05-04T23:09:08.865Z,102534.46
2018-05-04T23:11:37.943Z,102535.98
2018-05-04T23:14:07.041Z,102538.23
2018-05-04T23:16:35.519Z,102541.89
2018-05-04T23:19:03.843Z,102533.22
2018-05-04T23:21:32.156Z,102537.66
2018-05-04T23:24:00.493Z,102546.23
2018-05-04T23:26:28.811Z,102536.07
2018-05-04T23:28:57.152Z,102535.27
2018-05-04T23:31:26.286Z,102537.80
2018-05-04T23:33:54.642Z,102537.97
2018-05-04T23:36:23.018Z,102537.19
2018-05-04T23:38:52.325Z,102531.31
2018-05-04T23:41:21.452Z,102529.73
2018-05-04T23:43:49.764Z,102527.18
2018-05-04T23:46:18.102Z,102523.98
2018-05-04T23:48:46.415Z,102522.03
2018-05-04T23:51:14.730Z,102527.54
2018-05-04T23:53:43.852Z,102529.15
2018-05-04T23:56:12.174Z,102539.75
2018-05-04T23:58:40.482Z,102537.50
